sensor_id;sensor_type;location;lat;lon;timestamp;pressure;altitude;pressure_sealevel;temperature;humidity
38812;BME280;24553;51.640;-0.752;2022-12-10T00:01:09;100258.66;;;-7.95;100.00
38812;BME280;24553;51.640;-0.752;2022-12-10T00:03:35;100265.78;;;-8.00;100.00
38812;BME280;24553;51.640;-0.752;2022-12-10T00:06:01;100259.91;;;-8.02;100.00
38812;BME280;24553;51.640;-0.752;2022-12-10T00:08:27;100254.81;;;-8.04;100.00
38812;BME280;24553;51.640;-0.752;2022-12-10T00:10:52;100260.03;;;-8.05;100.00
38812;BME280;24553;51.640;-0.752;2022-12-10T00:13:17;100255.00;;;-8.07;100.00
38812;BME280;24553;51.640;-0.752;2022-12-10T00:15:42;100260.97;;;-8.06;100.00
38812;BME280;24553;51.640;-0.752;2022-12-10T00:18:07;100260.13;;;-8.07;100.00
38812;BME280;24553;51.640;-0.752;2022-12-10T00:20:33;100259.91;;;-8.02;100.00
38812;BME280;24553;51.640;-0.752;2022-12-10T00:22:58;100257.94;;;-7.97;100.00
38812;BME280;24553;51.640;-0.752;2022-12-10T00:25:23;100260.19;;;-7.91;100.00
38812;BME280;24553;51.640;-0.752;2022-12-10T00:27:48;100257.66;;;-7.93;100.00
38812;BME280;24553;51.640;-0.752;2022-12-10T00:30:13;100252.03;;;-7.99;100.00
38812;BME280;24553;51.640;-0.752;2022-12-10T00:32:39;100242.78;;;-8.03;100.00
38812;BME280;24553;51.640;-0.752;2022-12-10T00:35:04;100253.25;;;-8.06;100.00
38812;BME280;24553;51.640;-0.752;2022-12-10T00:37:29;100253.41;;;-8.09;100.00
38812;BME280;24553;51.640;-0.752;2022-12-10T00:39:55;100248.31;;;-8.11;100.00
38812;BME280;24553;51.640;-0.752;2022-12-10T00:42:20;100247.56;;;-8.13;100.00
38812;BME280;24553;51.640;-0.752;2022-12-10T00:44:45;100249.31;;;-8.14;100.00
38812;BME280;24553;51.640;-0.752;2022-12-10T00:47:10;100254.38;;;-8.12;100.00
38812;BME280;24553;51.640;-0.752;2022-12-10T00:49:35;100250.38;;;-8.18;100.00
38812;BME280;24553;51.640;-0.752;2022-12-10T00:52:01;100254.44;;;-8.14;100.00
38812;BME280;24553;51.640;-0.752;2022-12-10T00:54:26;100244.31;;;-8.17;100.00
38812;BME280;24553;51.640;-0.752;2022-12-10T00:56:52;100248.97;;;-8.23;100.00
38812;BME280;24553;51.640;-0.752;2022-12-10T00:59:17;100254.22;;;-8.26;100.00
38812;BME280;24553;51.640;-0.752;2022-12-10T01:01:42;100257.41;;;-8.21;100.00
38812;BME280;24553;51.640;-0.752;2022-12-10T01:04:09;100253.78;;;-8.17;100.00
38812;BME280;24553;51.640;-0.752;2022-12-10T01:06:36;100255.44;;;-8.16;100.00
38812;BME280;24553;51.640;-0.752;2022-12-10T01:09:03;100247.97;;;-8.21;100.00
38812;BME280;24553;51.640;-0.752;2022-12-10T01:11:29;100249.78;;;-8.23;100.00
38812;BME280;24553;51.640;-0.752;2022-12-10T01:13:55;100259.31;;;-8.25;100.00
38812;BME280;24553;51.640;-0.752;2022-12-10T01:16:21;100256.81;;;-8.26;100.00
38812;BME280;24553;51.640;-0.752;2022-12-10T01:18:46;100269.00;;;-8.30;100.00
38812;BME280;24553;51.640;-0.752;2022-12-10T01:21:13;100262.31;;;-8.34;100.00
38812;BME280;24553;51.640;-0.752;2022-12-10T01:23:39;100269.38;;;-8.38;100.00
38812;BME280;24553;51.640;-0.752;2022-12-10T01:26:06;100272.97;;;-8.40;100.00
38812;BME280;24553;51.640;-0.752;2022-12-10T01:28:33;100275.59;;;-8.42;100.00
38812;BME280;24553;51.640;-0.752;2022-12-10T01:31:02;100277.44;;;-8.44;100.00
38812;BME280;24553;51.640;-0.752;2022-12-10T01:33:28;100282.56;;;-8.44;100.00
38812;BME280;24553;51.640;-0.752;2022-12-10T01:35:53;100280.00;;;-8.44;100.00
38812;BME280;24553;51.640;-0.752;2022-12-10T01:38:18;100283.41;;;-8.43;100.00
38812;BME280;24553;51.640;-0.752;2022-12-10T01:40:44;100283.47;;;-8.45;100.00
38812;BME280;24553;51.640;-0.752;2022-12-10T01:43:12;100280.06;;;-8.45;100.00
38812;BME280;24553;51.640;-0.752;2022-12-10T01:45:38;100280.06;;;-8.45;100.00
38812;BME280;24553;51.640;-0.752;2022-12-10T01:48:03;100276.56;;;-8.44;100.00
38812;BME280;24553;51.640;-0.752;2022-12-10T01:50:28;100282.69;;;-8.47;100.00
38812;BME280;24553;51.640;-0.752;2022-12-10T01:52:54;100286.25;;;-8.49;100.00
38812;BME280;24553;51.640;-0.752;2022-12-10T01:58:20;100274.53;;;-8.55;100.00
38812;BME280;24553;51.640;-0.752;2022-12-10T02:03:37;100279.00;;;-8.59;100.00
38812;BME280;24553;51.640;-0.752;2022-12-10T02:11:44;100284.75;;;-8.53;100.00
38812;BME280;24553;51.640;-0.752;2022-12-10T02:14:14;100274.47;;;-8.53;100.00
38812;BME280;24553;51.640;-0.752;2022-12-10T02:16:41;100281.41;;;-8.56;100.00
38812;BME280;24553;51.640;-0.752;2022-12-10T02:21:38;100280.88;;;-8.62;100.00
38812;BME280;24553;51.640;-0.752;2022-12-10T02:24:09;100280.03;;;-8.63;100.00
38812;BME280;24553;51.640;-0.752;2022-12-10T02:26:43;100272.44;;;-8.64;100.00
38812;BME280;24553;51.640;-0.752;2022-12-10T02:29:15;100281.03;;;-8.65;100.00
38812;BME280;24553;51.640;-0.752;2022-12-10T02:31:42;100277.63;;;-8.66;100.00
38812;BME280;24553;51.640;-0.752;2022-12-10T02:34:09;100269.16;;;-8.68;100.00
38812;BME280;24553;51.640;-0.752;2022-12-10T02:36:37;100268.47;;;-8.71;100.00
38812;BME280;24553;51.640;-0.752;2022-12-10T02:39:04;100266.72;;;-8.71;100.00
38812;BME280;24553;51.640;-0.752;2022-12-10T02:41:35;100265.22;;;-8.75;100.00
38812;BME280;24553;51.640;-0.752;2022-12-10T02:44:03;100267.81;;;-8.75;100.00
38812;BME280;24553;51.640;-0.752;2022-12-10T02:46:30;100258.88;;;-8.68;100.00
38812;BME280;24553;51.640;-0.752;2022-12-10T02:48:57;100262.22;;;-8.66;100.00
38812;BME280;24553;51.640;-0.752;2022-12-10T02:51:23;100258.72;;;-8.65;100.00
38812;BME280;24553;51.640;-0.752;2022-12-10T02:53:58;100269.97;;;-8.67;100.00
38812;BME280;24553;51.640;-0.752;2022-12-10T02:56:26;100261.81;;;-8.75;100.00
38812;BME280;24553;51.640;-0.752;2022-12-10T03:01:27;100267.19;;;-8.80;100.00
38812;BME280;24553;51.640;-0.752;2022-12-10T03:04:01;100265.59;;;-8.83;100.00
38812;BME280;24553;51.640;-0.752;2022-12-10T03:06:47;100264.75;;;-8.83;100.00
38812;BME280;24553;51.640;-0.752;2022-12-10T03:09:17;100257.13;;;-8.85;100.00
38812;BME280;24553;51.640;-0.752;2022-12-10T03:11:44;100258.25;;;-8.90;100.00
38812;BME280;24553;51.640;-0.752;2022-12-10T03:14:25;100258.16;;;-8.89;100.00
38812;BME280;24553;51.640;-0.752;2022-12-10T03:16:53;100255.59;;;-8.89;100.00
38812;BME280;24553;51.640;-0.752;2022-12-10T03:19:20;100265.66;;;-8.84;100.00
38812;BME280;24553;51.640;-0.752;2022-12-10T03:21:47;100259.59;;;-8.83;100.00
38812;BME280;24553;51.640;-0.752;2022-12-10T03:24:13;100266.69;;;-8.88;100.00
38812;BME280;24553;51.640;-0.752;2022-12-10T03:26:40;100260.06;;;-8.92;100.00
38812;BME280;24553;51.640;-0.752;2022-12-10T03:29:08;100256.56;;;-8.91;100.00
38812;BME280;24553;51.640;-0.752;2022-12-10T03:31:34;100252.13;;;-8.88;100.00
38812;BME280;24553;51.640;-0.752;2022-12-10T03:34:00;100251.28;;;-8.88;100.00
38812;BME280;24553;51.640;-0.752;2022-12-10T03:36:26;100250.31;;;-8.86;100.00
38812;BME280;24553;51.640;-0.752;2022-12-10T03:38:52;100258.72;;;-8.82;100.00
38812;BME280;24553;51.640;-0.752;2022-12-10T03:41:18;100251.00;;;-8.82;100.00
38812;BME280;24553;51.640;-0.752;2022-12-10T03:43:50;100258.78;;;-8.84;100.00
38812;BME280;24553;51.640;-0.752;2022-12-10T03:46:15;100261.44;;;-8.85;100.00
38812;BME280;24553;51.640;-0.752;2022-12-10T03:48:41;100254.72;;;-8.88;100.00
38812;BME280;24553;51.640;-0.752;2022-12-10T03:51:06;100250.66;;;-8.93;100.00
38812;BME280;24553;51.640;-0.752;2022-12-10T03:53:31;100254.16;;;-8.94;100.00
38812;BME280;24553;51.640;-0.752;2022-12-10T03:55:56;100258.38;;;-8.93;100.00
38812;BME280;24553;51.640;-0.752;2022-12-10T03:58:22;100254.91;;;-8.92;100.00
38812;BME280;24553;51.640;-0.752;2022-12-10T04:00:47;100255.94;;;-8.96;100.00
38812;BME280;24553;51.640;-0.752;2022-12-10T04:03:12;100253.38;;;-8.96;100.00
38812;BME280;24553;51.640;-0.752;2022-12-10T04:05:37;100252.56;;;-8.97;100.00
38812;BME280;24553;51.640;-0.752;2022-12-10T04:08:03;100257.75;;;-8.98;100.00
38812;BME280;24553;51.640;-0.752;2022-12-10T04:10:28;100262.69;;;-8.94;100.00
38812;BME280;24553;51.640;-0.752;2022-12-10T04:12:53;100251.44;;;-8.91;100.00
38812;BME280;24553;51.640;-0.752;2022-12-10T04:15:39;100253.22;;;-8.93;100.00
38812;BME280;24553;51.640;-0.752;2022-12-10T04:18:22;100239.78;;;-8.98;100.00
38812;BME280;24553;51.640;-0.752;2022-12-10T04:20:48;100253.53;;;-9.00;100.00
38812;BME280;24553;51.640;-0.752;2022-12-10T04:23:31;100238.59;;;-8.91;100.00
38812;BME280;24553;51.640;-0.752;2022-12-10T04:26:15;100245.31;;;-8.89;100.00
38812;BME280;24553;51.640;-0.752;2022-12-10T04:28:59;100242.75;;;-8.89;100.00
38812;BME280;24553;51.640;-0.752;2022-12-10T04:31:24;100247.97;;;-8.90;100.00
38812;BME280;24553;51.640;-0.752;2022-12-10T04:33:50;100254.16;;;-8.94;100.00
38812;BME280;24553;51.640;-0.752;2022-12-10T04:36:15;100255.94;;;-8.96;100.00
38812;BME280;24553;51.640;-0.752;2022-12-10T04:38:40;100255.34;;;-9.02;100.00
38812;BME280;24553;51.640;-0.752;2022-12-10T04:41:05;100252.09;;;-9.05;100.00
38812;BME280;24553;51.640;-0.752;2022-12-10T04:43:40;100253.91;;;-9.07;100.00
38812;BME280;24553;51.640;-0.752;2022-12-10T04:46:05;100245.22;;;-9.05;100.00
38812;BME280;24553;51.640;-0.752;2022-12-10T04:48:30;100246.88;;;-9.04;100.00
38812;BME280;24553;51.640;-0.752;2022-12-10T04:50:55;100250.28;;;-9.03;100.00
38812;BME280;24553;51.640;-0.752;2022-12-10T04:53:20;100249.53;;;-9.05;100.00
38812;BME280;24553;51.640;-0.752;2022-12-10T04:55:47;100253.84;;;-9.06;100.00
38812;BME280;24553;51.640;-0.752;2022-12-10T04:58:12;100246.25;;;-9.09;100.00
38812;BME280;24553;51.640;-0.752;2022-12-10T05:00:37;100248.06;;;-9.11;100.00
38812;BME280;24553;51.640;-0.752;2022-12-10T05:03:03;100250.75;;;-9.14;100.00
38812;BME280;24553;51.640;-0.752;2022-12-10T05:05:28;100251.69;;;-9.15;100.00
38812;BME280;24553;51.640;-0.752;2022-12-10T05:07:53;100242.22;;;-9.14;100.00
38812;BME280;24553;51.640;-0.752;2022-12-10T05:10:18;100251.53;;;-9.12;100.00
38812;BME280;24553;51.640;-0.752;2022-12-10T05:12:44;100255.03;;;-9.13;100.00
38812;BME280;24553;51.640;-0.752;2022-12-10T05:15:09;100256.81;;;-9.15;100.00
38812;BME280;24553;51.640;-0.752;2022-12-10T05:17:34;100263.75;;;-9.17;100.00
38812;BME280;24553;51.640;-0.752;2022-12-10T05:20:00;100262.09;;;-9.18;100.00
38812;BME280;24553;51.640;-0.752;2022-12-10T05:22:25;100258.00;;;-9.22;100.00
38812;BME280;24553;51.640;-0.752;2022-12-10T05:25:09;100255.38;;;-9.20;100.00
38812;BME280;24553;51.640;-0.752;2022-12-10T05:27:34;100256.19;;;-9.20;100.00
38812;BME280;24553;51.640;-0.752;2022-12-10T05:29:59;100257.03;;;-9.19;100.00
38812;BME280;24553;51.640;-0.752;2022-12-10T05:32:24;100256.19;;;-9.20;100.00
38812;BME280;24553;51.640;-0.752;2022-12-10T05:34:49;100256.34;;;-9.23;100.00
38812;BME280;24553;51.640;-0.752;2022-12-10T05:37:15;100258.16;;;-9.25;100.00
38812;BME280;24553;51.640;-0.752;2022-12-10T05:39:40;100253.97;;;-9.28;100.00
38812;BME280;24553;51.640;-0.752;2022-12-10T05:42:05;100252.94;;;-9.24;100.00
38812;BME280;24553;51.640;-0.752;2022-12-10T05:44:30;100252.88;;;-9.22;100.00
38812;BME280;24553;51.640;-0.752;2022-12-10T05:46:56;100249.94;;;-9.14;100.00
38812;BME280;24553;51.640;-0.752;2022-12-10T05:49:21;100247.22;;;-9.11;100.00
38812;BME280;24553;51.640;-0.752;2022-12-10T05:51:46;100239.47;;;-9.10;100.00
38812;BME280;24553;51.640;-0.752;2022-12-10T05:54:11;100249.66;;;-9.08;100.00
38812;BME280;24553;51.640;-0.752;2022-12-10T05:56:37;100255.69;;;-9.09;100.00
38812;BME280;24553;51.640;-0.752;2022-12-10T05:59:03;100258.34;;;-9.11;100.00
38812;BME280;24553;51.640;-0.752;2022-12-10T06:01:30;100257.72;;;-9.16;100.00
38812;BME280;24553;51.640;-0.752;2022-12-10T06:03:56;100258.09;;;-9.24;100.00
38812;BME280;24553;51.640;-0.752;2022-12-10T06:06:22;100257.72;;;-9.35;100.00
38812;BME280;24553;51.640;-0.752;2022-12-10T06:08:48;100259.56;;;-9.37;100.00
38812;BME280;24553;51.640;-0.752;2022-12-10T06:11:13;100262.94;;;-9.36;100.00
38812;BME280;24553;51.640;-0.752;2022-12-10T06:13:39;100264.41;;;-9.31;100.00
38812;BME280;24553;51.640;-0.752;2022-12-10T06:16:08;100264.94;;;-9.24;100.00
38812;BME280;24553;51.640;-0.752;2022-12-10T06:18:33;100263.97;;;-9.22;100.00
38812;BME280;24553;51.640;-0.752;2022-12-10T06:21:02;100265.78;;;-9.24;100.00
38812;BME280;24553;51.640;-0.752;2022-12-10T06:23:27;100269.19;;;-9.23;100.00
38812;BME280;24553;51.640;-0.752;2022-12-10T06:25:52;100262.50;;;-9.27;100.00
38812;BME280;24553;51.640;-0.752;2022-12-10T06:28:18;100259.31;;;-9.32;100.00
38812;BME280;24553;51.640;-0.752;2022-12-10T06:30:43;100263.78;;;-9.36;100.00
38812;BME280;24553;51.640;-0.752;2022-12-10T06:33:08;100261.50;;;-9.42;100.00
38812;BME280;24553;51.640;-0.752;2022-12-10T06:35:33;100265.78;;;-9.43;100.00
38812;BME280;24553;51.640;-0.752;2022-12-10T06:37:58;100268.47;;;-9.46;100.00
38812;BME280;24553;51.640;-0.752;2022-12-10T06:40:24;100268.69;;;-9.50;100.00
38812;BME280;24553;51.640;-0.752;2022-12-10T06:42:52;100275.41;;;-9.48;100.00
38812;BME280;24553;51.640;-0.752;2022-12-10T06:45:18;100273.75;;;-9.49;100.00
38812;BME280;24553;51.640;-0.752;2022-12-10T06:47:43;100270.28;;;-9.48;100.00
38812;BME280;24553;51.640;-0.752;2022-12-10T06:50:08;100271.75;;;-9.42;100.00
38812;BME280;24553;51.640;-0.752;2022-12-10T06:52:34;100273.22;;;-9.36;100.00
38812;BME280;24553;51.640;-0.752;2022-12-10T06:54:59;100270.56;;;-9.35;100.00
38812;BME280;24553;51.640;-0.752;2022-12-10T06:57:24;100271.47;;;-9.36;100.00
38812;BME280;24553;51.640;-0.752;2022-12-10T06:59:49;100275.06;;;-9.40;100.00
38812;BME280;24553;51.640;-0.752;2022-12-10T07:02:15;100277.72;;;-9.41;100.00
38812;BME280;24553;51.640;-0.752;2022-12-10T07:04:40;100275.16;;;-9.41;100.00
38812;BME280;24553;51.640;-0.752;2022-12-10T07:07:06;100275.06;;;-9.40;100.00
38812;BME280;24553;51.640;-0.752;2022-12-10T07:09:31;100281.06;;;-9.39;100.00
38812;BME280;24553;51.640;-0.752;2022-12-10T07:11:57;100277.72;;;-9.41;100.00
38812;BME280;24553;51.640;-0.752;2022-12-10T07:14:22;100287.91;;;-9.40;100.00
38812;BME280;24553;51.640;-0.752;2022-12-10T07:16:47;100284.38;;;-9.37;100.00
38812;BME280;24553;51.640;-0.752;2022-12-10T07:19:13;100284.53;;;-9.40;100.00
38812;BME280;24553;51.640;-0.752;2022-12-10T07:21:41;100289.78;;;-9.44;100.00
38812;BME280;24553;51.640;-0.752;2022-12-10T07:24:09;100286.31;;;-9.43;100.00
38812;BME280;24553;51.640;-0.752;2022-12-10T07:26:35;100281.94;;;-9.40;100.00
38812;BME280;24553;51.640;-0.752;2022-12-10T07:29:02;100269.25;;;-9.44;100.00
38812;BME280;24553;51.640;-0.752;2022-12-10T07:31:27;100273.56;;;-9.44;100.00
38812;BME280;24553;51.640;-0.752;2022-12-10T07:33:53;100277.09;;;-9.47;100.00
38812;BME280;24553;51.640;-0.752;2022-12-10T07:36:19;100275.38;;;-9.46;100.00
38812;BME280;24553;51.640;-0.752;2022-12-10T07:38:44;100281.31;;;-9.46;100.00
38812;BME280;24553;51.640;-0.752;2022-12-10T07:41:11;100274.59;;;-9.48;100.00
38812;BME280;24553;51.640;-0.752;2022-12-10T07:43:37;100276.31;;;-9.49;100.00
38812;BME280;24553;51.640;-0.752;2022-12-10T07:46:03;100277.31;;;-9.51;100.00
38812;BME280;24553;51.640;-0.752;2022-12-10T07:48:29;100278.28;;;-9.54;100.00
38812;BME280;24553;51.640;-0.752;2022-12-10T07:50:57;100273.00;;;-9.51;100.00
38812;BME280;24553;51.640;-0.752;2022-12-10T07:53:23;100278.13;;;-9.51;100.00
38812;BME280;24553;51.640;-0.752;2022-12-10T07:55:48;100275.50;;;-9.49;100.00
38812;BME280;24553;51.640;-0.752;2022-12-10T07:58:13;100286.47;;;-9.46;100.00
38812;BME280;24553;51.640;-0.752;2022-12-10T08:00:38;100282.16;;;-9.45;100.00
38812;BME280;24553;51.640;-0.752;2022-12-10T08:03:04;100285.56;;;-9.45;100.00
38812;BME280;24553;51.640;-0.752;2022-12-10T08:05:29;100289.78;;;-9.44;100.00
38812;BME280;24553;51.640;-0.752;2022-12-10T08:07:54;100285.56;;;-9.45;100.00
38812;BME280;24553;51.640;-0.752;2022-12-10T08:10:19;100282.22;;;-9.47;100.00
38812;BME280;24553;51.640;-0.752;2022-12-10T08:12:45;100288.25;;;-9.48;100.00
38812;BME280;24553;51.640;-0.752;2022-12-10T08:15:10;100289.94;;;-9.47;100.00
38812;BME280;24553;51.640;-0.752;2022-12-10T08:17:35;100290.72;;;-9.45;100.00
38812;BME280;24553;51.640;-0.752;2022-12-10T08:20:00;100288.78;;;-9.39;100.00
38812;BME280;24553;51.640;-0.752;2022-12-10T08:22:26;100292.06;;;-9.37;100.00
38812;BME280;24553;51.640;-0.752;2022-12-10T08:24:51;100295.50;;;-9.37;100.00
38812;BME280;24553;51.640;-0.752;2022-12-10T08:27:16;100288.69;;;-9.38;100.00
38812;BME280;24553;51.640;-0.752;2022-12-10T08:29:41;100296.47;;;-9.39;100.00
38812;BME280;24553;51.640;-0.752;2022-12-10T08:32:07;100294.72;;;-9.39;100.00
38812;BME280;24553;51.640;-0.752;2022-12-10T08:34:32;100302.25;;;-9.34;100.00
38812;BME280;24553;51.640;-0.752;2022-12-10T08:36:57;100298.41;;;-9.26;100.00
38812;BME280;24553;51.640;-0.752;2022-12-10T08:39:22;100298.88;;;-9.17;100.00
38812;BME280;24553;51.640;-0.752;2022-12-10T08:41:48;100304.59;;;-9.11;100.00
38812;BME280;24553;51.640;-0.752;2022-12-10T08:44:13;100300.06;;;-9.06;100.00
38812;BME280;24553;51.640;-0.752;2022-12-10T08:46:38;100306.72;;;-9.02;100.00
38812;BME280;24553;51.640;-0.752;2022-12-10T08:49:04;100305.69;;;-8.97;100.00
38812;BME280;24553;51.640;-0.752;2022-12-10T08:51:31;100312.28;;;-8.92;100.00
38812;BME280;24553;51.640;-0.752;2022-12-10T08:53:56;100310.31;;;-8.87;100.00
38812;BME280;24553;51.640;-0.752;2022-12-10T08:56:22;100310.25;;;-8.85;100.00
38812;BME280;24553;51.640;-0.752;2022-12-10T08:58:47;100310.19;;;-8.84;100.00
38812;BME280;24553;51.640;-0.752;2022-12-10T09:01:13;100316.63;;;-8.75;100.00
38812;BME280;24553;51.640;-0.752;2022-12-10T09:03:39;100313.41;;;-8.61;100.00
38812;BME280;24553;51.640;-0.752;2022-12-10T09:06:05;100316.84;;;-8.43;100.00
38812;BME280;24553;51.640;-0.752;2022-12-10T09:08:31;100316.94;;;-8.29;100.00
38812;BME280;24553;51.640;-0.752;2022-12-10T09:10:56;100313.03;;;-8.19;100.00
38812;BME280;24553;51.640;-0.752;2022-12-10T09:13:21;100319.47;;;-8.10;100.00
38812;BME280;24553;51.640;-0.752;2022-12-10T09:15:50;100319.81;;;-8.00;100.00
38812;BME280;24553;51.640;-0.752;2022-12-10T09:18:16;100321.13;;;-7.92;100.00
38812;BME280;24553;51.640;-0.752;2022-12-10T09:20:41;100318.81;;;-7.80;100.00
38812;BME280;24553;51.640;-0.752;2022-12-10T09:23:06;100320.19;;;-7.73;100.00
38812;BME280;24553;51.640;-0.752;2022-12-10T09:25:31;100321.88;;;-7.56;100.00
38812;BME280;24553;51.640;-0.752;2022-12-10T09:27:57;100327.38;;;-7.47;100.00
38812;BME280;24553;51.640;-0.752;2022-12-10T09:30:22;100327.59;;;-7.34;100.00
38812;BME280;24553;51.640;-0.752;2022-12-10T09:32:47;100321.13;;;-7.25;100.00
38812;BME280;24553;51.640;-0.752;2022-12-10T09:35:12;100329.19;;;-7.15;100.00
38812;BME280;24553;51.640;-0.752;2022-12-10T09:37:38;100327.06;;;-7.07;100.00
38812;BME280;24553;51.640;-0.752;2022-12-10T09:40:03;100324.72;;;-6.96;100.00
38812;BME280;24553;51.640;-0.752;2022-12-10T09:42:34;100319.56;;;-6.80;100.00
38812;BME280;24553;51.640;-0.752;2022-12-10T09:47:31;100327.25;;;-6.48;100.00
38812;BME280;24553;51.640;-0.752;2022-12-10T09:50:01;100328.63;;;-6.27;100.00
38812;BME280;24553;51.640;-0.752;2022-12-10T09:52:35;100326.00;;;-6.11;100.00
38812;BME280;24553;51.640;-0.752;2022-12-10T09:55:03;100329.13;;;-5.92;100.00
38812;BME280;24553;51.640;-0.752;2022-12-10T09:57:35;100324.00;;;-5.77;100.00
38812;BME280;24553;51.640;-0.752;2022-12-10T10:00:05;100330.09;;;-5.64;100.00
38812;BME280;24553;51.640;-0.752;2022-12-10T10:02:32;100329.28;;;-5.50;100.00
38812;BME280;24553;51.640;-0.752;2022-12-10T10:07:44;100334.56;;;-5.23;100.00
38812;BME280;24553;51.640;-0.752;2022-12-10T10:10:32;100331.94;;;-5.09;100.00
38812;BME280;24553;51.640;-0.752;2022-12-10T10:12:58;100333.41;;;-4.90;100.00
38812;BME280;24553;51.640;-0.752;2022-12-10T10:15:27;100324.84;;;-4.78;100.00
38812;BME280;24553;51.640;-0.752;2022-12-10T10:17:54;100331.56;;;-4.61;100.00
38812;BME280;24553;51.640;-0.752;2022-12-10T10:20:21;100322.09;;;-4.48;100.00
38812;BME280;24553;51.640;-0.752;2022-12-10T10:22:46;100322.53;;;-4.41;100.00
38812;BME280;24553;51.640;-0.752;2022-12-10T10:25:15;100321.78;;;-4.43;100.00
38812;BME280;24553;51.640;-0.752;2022-12-10T10:27:42;100324.59;;;-4.46;100.00
38812;BME280;24553;51.640;-0.752;2022-12-10T10:30:12;100321.78;;;-4.43;100.00
38812;BME280;24553;51.640;-0.752;2022-12-10T10:35:04;100329.00;;;-4.08;100.00
38812;BME280;24553;51.640;-0.752;2022-12-10T10:37:39;100324.50;;;-3.92;100.00
38812;BME280;24553;51.640;-0.752;2022-12-10T10:40:05;100329.06;;;-3.83;100.00
38812;BME280;24553;51.640;-0.752;2022-12-10T10:42:35;100324.91;;;-3.73;100.00
38812;BME280;24553;51.640;-0.752;2022-12-10T10:45:05;100323.66;;;-3.67;100.00
38812;BME280;24553;51.640;-0.752;2022-12-10T10:47:32;100328.34;;;-3.59;100.00
38812;BME280;24553;51.640;-0.752;2022-12-10T10:49:58;100326.06;;;-3.51;100.00
38812;BME280;24553;51.640;-0.752;2022-12-10T10:52:25;100321.28;;;-3.32;100.00
38812;BME280;24553;51.640;-0.752;2022-12-10T10:54:52;100330.69;;;-3.18;100.00
38812;BME280;24553;51.640;-0.752;2022-12-10T10:59:43;100324.56;;;-3.04;100.00
38812;BME280;24553;51.640;-0.752;2022-12-10T11:04:54;100328.44;;;-2.61;100.00
38812;BME280;24553;51.640;-0.752;2022-12-10T11:07:21;100330.44;;;-2.41;100.00
38812;BME280;24553;51.640;-0.752;2022-12-10T11:09:48;100325.94;;;-2.15;100.00
38812;BME280;24553;51.640;-0.752;2022-12-10T11:12:53;100325.19;;;-1.93;100.00
38812;BME280;24553;51.640;-0.752;2022-12-10T11:17:52;100317.78;;;-1.52;100.00
38812;BME280;24553;51.640;-0.752;2022-12-10T11:20:19;100321.72;;;-1.36;100.00
38812;BME280;24553;51.640;-0.752;2022-12-10T11:22:51;100322.06;;;-1.18;100.00
38812;BME280;24553;51.640;-0.752;2022-12-10T11:25:18;100317.44;;;-1.03;100.00
38812;BME280;24553;51.640;-0.752;2022-12-10T11:30:14;100318.72;;;-0.75;100.00
38812;BME280;24553;51.640;-0.752;2022-12-10T11:35:19;100311.97;;;-0.45;100.00
38812;BME280;24553;51.640;-0.752;2022-12-10T11:56:34;100292.69;;;0.82;100.00
38812;BME280;24553;51.640;-0.752;2022-12-10T12:09:25;100283.31;;;1.20;100.00
38812;BME280;24553;51.640;-0.752;2022-12-10T12:12:11;100264.19;;;1.29;100.00
38812;BME280;24553;51.640;-0.752;2022-12-10T12:14:43;100271.91;;;1.40;100.00
38812;BME280;24553;51.640;-0.752;2022-12-10T12:17:19;100268.22;;;1.52;100.00
38812;BME280;24553;51.640;-0.752;2022-12-10T12:19:47;100269.84;;;1.63;100.00
38812;BME280;24553;51.640;-0.752;2022-12-10T12:22:28;100269.69;;;1.74;100.00
38812;BME280;24553;51.640;-0.752;2022-12-10T12:24:56;100266.97;;;1.76;100.00
38812;BME280;24553;51.640;-0.752;2022-12-10T12:30:03;100261.28;;;1.90;100.00
38812;BME280;24553;51.640;-0.752;2022-12-10T12:32:51;100258.25;;;1.95;100.00
38812;BME280;24553;51.640;-0.752;2022-12-10T12:35:16;100265.09;;;2.06;100.00
38812;BME280;24553;51.640;-0.752;2022-12-10T12:37:45;100258.78;;;2.08;100.00
38812;BME280;24553;51.640;-0.752;2022-12-10T12:43:03;100258.84;;;2.26;100.00
38812;BME280;24553;51.640;-0.752;2022-12-10T12:45:39;100252.69;;;2.27;100.00
38812;BME280;24553;51.640;-0.752;2022-12-10T12:48:27;100256.25;;;2.26;100.00
38812;BME280;24553;51.640;-0.752;2022-12-10T12:50:59;100256.66;;;2.22;100.00
38812;BME280;24553;51.640;-0.752;2022-12-10T12:53:25;100246.50;;;2.18;100.00
38812;BME280;24553;51.640;-0.752;2022-12-10T12:55:59;100248.88;;;2.12;100.00
38812;BME280;24553;51.640;-0.752;2022-12-10T12:58:31;100246.41;;;2.01;100.00
38812;BME280;24553;51.640;-0.752;2022-12-10T13:01:00;100242.84;;;1.92;100.00
38812;BME280;24553;51.640;-0.752;2022-12-10T13:05:56;100239.53;;;1.90;100.00
38812;BME280;24553;51.640;-0.752;2022-12-10T13:08:41;100245.34;;;1.84;100.00
38812;BME280;24553;51.640;-0.752;2022-12-10T13:13:38;100241.22;;;1.81;100.00
38812;BME280;24553;51.640;-0.752;2022-12-10T13:18:53;100232.69;;;1.79;100.00
38812;BME280;24553;51.640;-0.752;2022-12-10T13:21:33;100234.31;;;1.80;100.00
38812;BME280;24553;51.640;-0.752;2022-12-10T13:24:06;100232.41;;;1.82;100.00
38812;BME280;24553;51.640;-0.752;2022-12-10T13:26:32;100230.47;;;1.84;100.00
38812;BME280;24553;51.640;-0.752;2022-12-10T13:31:41;100227.31;;;1.81;100.00
38812;BME280;24553;51.640;-0.752;2022-12-10T13:34:32;100222.75;;;1.83;100.00
38812;BME280;24553;51.640;-0.752;2022-12-10T13:39:32;100219.63;;;1.79;100.00
38812;BME280;24553;51.640;-0.752;2022-12-10T13:49:53;100219.91;;;1.66;100.00
38812;BME280;24553;51.640;-0.752;2022-12-10T13:52:30;100215.66;;;1.65;100.00
38812;BME280;24553;51.640;-0.752;2022-12-10T13:55:17;100213.47;;;1.61;100.00
38812;BME280;24553;51.640;-0.752;2022-12-10T14:00:13;100207.25;;;1.62;100.00
38812;BME280;24553;51.640;-0.752;2022-12-10T14:05:36;100206.84;;;1.57;100.00
38812;BME280;24553;51.640;-0.752;2022-12-10T14:08:04;100206.44;;;1.61;100.00
38812;BME280;24553;51.640;-0.752;2022-12-10T14:10:34;100205.06;;;1.57;100.00